ADDS METAR Data INFO
IDs: Format: Raw Decoded Include TAF

Data at: 2336 UTC 15 Dec 2017

KCCO 152315Z AUTO 32004KT 10SM CLR 04/M05 A3015 RMK AO2 T00381053
KCCO 152255Z AUTO 31005KT 10SM CLR 04/M05 A3014 RMK AO2 T00401055
KCCO 152235Z AUTO 32008KT 10SM CLR 04/M05 A3014 RMK AO2 T00401055
KCCO 152215Z AUTO 32008KT 10SM CLR 04/M06 A3012 RMK AO2 T00411056
KCCO 152155Z AUTO 32005KT 10SM CLR 04/M05 A3013 RMK AO2 T00421055
KCCO 152135Z AUTO 32007KT 10SM CLR 04/M06 A3012 RMK AO2 T00431056
KCCO 152115Z AUTO 32008KT 10SM SCT120 05/M06 A3011 RMK AO2 T00451057
KCCO 152055Z AUTO 32007KT 10SM SCT120 05/M06 A3011 RMK AO2 T00451056
KCCO 152035Z AUTO 31005KT 10SM SCT120 05/M05 A3012 RMK AO2 T00481053
KCCO 152015Z AUTO 30008KT 10SM SCT120 05/M06 A3009 RMK AO2 T00491056
KCCO 151955Z AUTO 31006KT 10SM CLR 05/M06 A3009 RMK AO2 T00501057
KCCO 151935Z AUTO 33009KT 10SM CLR 05/M06 A3009 RMK AO2 T00481061
KCCO 151915Z AUTO 31010KT 10SM CLR 05/M06 A3010 RMK AO2 T00491060
KCCO 151855Z AUTO 31008KT 10SM CLR 05/M06 A3009 RMK AO2 T00501061
KCCO 151835Z AUTO 32008G15KT 280V340 10SM CLR 05/M06 A3010 RMK AO2 T00541058
KCCO 151815Z AUTO 29006G16KT 10SM CLR 06/M05 A3010 RMK AO2 T00581055
KCCO 151755Z AUTO 32011G15KT 10SM CLR 06/M05 A3009 RMK AO2 T00571055 10062 20031
KCCO 151735Z AUTO 31006KT 280V350 10SM CLR 06/M05 A3009 RMK AO2 T00571053
KCCO 151715Z AUTO 31010G16KT 10SM CLR 06/M05 A3008 RMK AO2 T00581049
KCCO 151655Z AUTO 30007G15KT 10SM CLR 06/M05 A3009 RMK AO2 T00611046
KCCO 151635Z AUTO 31006G15KT 10SM CLR 06/M04 A3010 RMK AO2 T00571040
KCCO 151615Z AUTO 33011G17KT 10SM CLR 06/M04 A3010 RMK AO2 T00571045
KCCO 151555Z AUTO 31007KT 290V350 10SM CLR 05/M03 A3009 RMK AO2 T00511031
KCCO 151535Z AUTO 34008KT 10SM CLR 05/M02 A3009 RMK AO2 T00461025
KCCO 151515Z AUTO 31006KT 10SM CLR 04/M02 A3007 RMK AO2 T00421025
KCCO 151455Z AUTO 00000KT 10SM CLR 04/M01 A3008 RMK AO2 T00431015
KCCO 151435Z AUTO 35006KT 10SM CLR 04/M01 A3006 RMK AO2 T00411011
KCCO 151415Z AUTO 31003KT 10SM CLR 04/M01 A3007 RMK AO2 T00361011
KCCO 151355Z AUTO 34008KT 10SM CLR 03/M01 A3006 RMK AO2 T00341011
KCCO 151335Z AUTO 33005KT 10SM CLR 03/M01 A3006 RMK AO2 T00311010
KCCO 151315Z AUTO 34003KT 10SM CLR 03/M01 A3005 RMK AO2 T00331012
KCCO 151255Z AUTO 33005KT 10SM CLR 03/M01 A3004 RMK AO2 T00331011
KCCO 151235Z AUTO 33004KT 10SM CLR 04/M01 A3004 RMK AO2 T00351011
KCCO 151215Z AUTO 33003KT 10SM CLR 04/M01 A3003 RMK AO2 T00351011
KCCO 151155Z AUTO 35006KT 10SM CLR 04/M01 A3002 RMK AO2 T00351012 10059 20028
KCCO 151135Z AUTO 36006KT 10SM CLR 04/M01 A3002 RMK AO2 T00371011
KCCO 151115Z AUTO 35008KT 10SM CLR 04/00 A3001 RMK AO2 T00401001
KCCO 151055Z AUTO 36005KT 10SM CLR 04/01 A3001 RMK AO2 T00440005
KCCO 151035Z AUTO 34004KT 10SM CLR 05/01 A3000 RMK AO2 T00460006
KCCO 151015Z AUTO 32004KT 10SM CLR 05/01 A3000 RMK AO2 T00460014
KCCO 150955Z AUTO 31003KT 10SM CLR 03/01 A3000 RMK AO2 T00320012
KCCO 150935Z AUTO 00000KT 10SM CLR 03/01 A3000 RMK AO2 T00320011
KCCO 150915Z AUTO 00000KT 10SM CLR 04/01 A3000 RMK AO2 T00360013
KCCO 150855Z AUTO 30003KT 10SM CLR 04/02 A3000 RMK AO2 T00420016
KCCO 150835Z AUTO 00000KT 10SM CLR 04/01 A3000 RMK AO2 T00350014
KCCO 150815Z AUTO 00000KT 10SM CLR 04/02 A3000 RMK AO2 T00410015
KCCO 150755Z AUTO 00000KT 10SM CLR 04/02 A2999 RMK AO2 T00420015
KCCO 150735Z AUTO 00000KT 10SM CLR 04/02 A2999 RMK AO2 T00420015
KCCO 150715Z AUTO 00000KT 10SM CLR 05/02 A2999 RMK AO2 T00500018
KCCO 150655Z AUTO 00000KT 10SM CLR 05/02 A2998 RMK AO2 T00520019
KCCO 150635Z AUTO 00000KT 10SM CLR 05/02 A2998 RMK AO2 T00520022
KCCO 150615Z AUTO 00000KT 10SM CLR 06/02 A2999 RMK AO2 T00560019
KCCO 150555Z AUTO 00000KT 10SM CLR 06/02 A3000 RMK AO2 T00600020 10080 20057 401350016
KCCO 150535Z AUTO 00000KT 10SM CLR 06/02 A3000 RMK AO2 T00630020
KCCO 150515Z AUTO 00000KT 10SM CLR 06/02 A3001 RMK AO2 T00630021
KCCO 150455Z AUTO 27003KT 10SM CLR 06/02 A3002 RMK AO2 T00630022
KCCO 150435Z AUTO 00000KT 10SM CLR 06/02 A3001 RMK AO2 T00620021
KCCO 150415Z AUTO 00000KT 10SM CLR 06/02 A3001 RMK AO2 T00590020
KCCO 150355Z AUTO 00000KT 10SM CLR 07/02 A3001 RMK AO2 T00670020
KCCO 150335Z AUTO 00000KT 10SM CLR 07/02 A3001 RMK AO2 T00700021
KCCO 150315Z AUTO 00000KT 10SM CLR 07/02 A3000 RMK AO2 T00670020
KCCO 150255Z AUTO 00000KT 10SM CLR 07/02 A3001 RMK AO2 T00720020
KCCO 150235Z AUTO 00000KT 10SM CLR 08/02 A2999 RMK AO2 T00760020
KCCO 150215Z AUTO 00000KT 10SM CLR 08/02 A3000 RMK AO2 T00800020
KCCO 150155Z AUTO 00000KT 10SM CLR 08/02 A3000 RMK AO2 T00750020
KCCO 150135Z AUTO 00000KT 10SM CLR 07/02 A2999 RMK AO2 T00730018
KCCO 150115Z AUTO 00000KT 10SM CLR 07/02 A2998 RMK AO2 T00690016
KCCO 150055Z AUTO 00000KT 10SM CLR 08/02 A2998 RMK AO2 T00770016
KCCO 150035Z AUTO 00000KT 10SM CLR 08/02 A2998 RMK AO2 T00750017
KCCO 150015Z AUTO 00000KT 10SM CLR 07/02 A2997 RMK AO2 T00740017
KCCO 142355Z AUTO 00000KT 10SM CLR 08/02 A2997 RMK AO2 T00780015 10135 20076
KCCO 142335Z AUTO 00000KT 10SM CLR 09/02 A2997 RMK AO2 T00850015
KCCO 142315Z AUTO 00000KT 10SM CLR 08/02 A2995 RMK AO2 T00810015
KCCO 142255Z AUTO 00000KT 10SM CLR 09/01 A2995 RMK AO2 T00940013
KCCO 142235Z AUTO 00000KT 10SM CLR 10/01 A2994 RMK AO2 T01010012
KCCO 142215Z AUTO 00000KT 10SM CLR 11/01 A2995 RMK AO2 T01080010
KCCO 142155Z AUTO 00000KT 10SM CLR 11/01 A2995 RMK AO2 T01120007
KCCO 142135Z AUTO 00000KT 10SM CLR 12/01 A2995 RMK AO2 T01200006
KCCO 142115Z AUTO 00000KT 10SM CLR 13/01 A2994 RMK AO2 T01250005
KCCO 142055Z AUTO 23005KT 10SM CLR 13/01 A2995 RMK AO2 T01300005
KCCO 142035Z AUTO 00000KT 10SM CLR 13/00 A2994 RMK AO2 T01330001
KCCO 142015Z AUTO 24004KT 10SM CLR 13/00 A2994 RMK AO2 T01330000
KCCO 141955Z AUTO 24004KT 10SM CLR 14/00 A2993 RMK AO2 T01350000
KCCO 141935Z AUTO 25005KT 10SM CLR 13/00 A2993 RMK AO2 T01340000
KCCO 141915Z AUTO 24004KT 10SM CLR 13/00 A2992 RMK AO2 T01331001
KCCO 141855Z AUTO 24004KT 10SM CLR 13/00 A2993 RMK AO2 T01291002
KCCO 141835Z AUTO 00000KT 10SM CLR 13/00 A2993 RMK AO2 T01270000
KCCO 141815Z AUTO 25004KT 10SM CLR 12/00 A2993 RMK AO2 T01241004
KCCO 141755Z AUTO 24004KT 10SM CLR 12/00 A2994 RMK AO2 T01221005 10122 20016
KCCO 141735Z AUTO 24004KT 10SM CLR 11/M01 A2994 RMK AO2 T01141009
KCCO 141715Z AUTO 22004KT 10SM CLR 11/M01 A2994 RMK AO2 T01131006
KCCO 141655Z AUTO 00000KT 10SM CLR 11/M01 A2995 RMK AO2 T01111007
KCCO 141635Z AUTO 24005KT 10SM CLR 11/M01 A2996 RMK AO2 T01061007
KCCO 141615Z AUTO 29003KT 10SM CLR 10/M01 A2996 RMK AO2 T00971010
KCCO 141555Z AUTO 30003KT 10SM CLR 09/M01 A2996 RMK AO2 T00891009
KCCO 141535Z AUTO 29004KT 10SM CLR 08/00 A2995 RMK AO2 T00801002
KCCO 141515Z AUTO 00000KT 10SM CLR 07/00 A2995 RMK AO2 T00671001
KCCO 141455Z AUTO 24003KT 10SM CLR 05/00 A2994 RMK AO2 T00541002
KCCO 141435Z AUTO 24003KT 10SM CLR 04/00 A2993 RMK AO2 T00441002
KCCO 141415Z AUTO 00000KT 10SM CLR 03/00 A2993 RMK AO2 T00311005
KCCO 141355Z AUTO 24003KT 10SM CLR 02/M01 A2992 RMK AO2 T00241010
KCCO 141335Z AUTO 26003KT 10SM CLR 02/M01 A2992 RMK AO2 T00211010
KCCO 141315Z AUTO 26003KT 10SM CLR 02/M01 A2992 RMK AO2 T00181011
KCCO 141250Z AUTO 26004KT 10SM CLR 02/M01 A2992 RMK AO2 T00171012
KCCO 141235Z AUTO 25003KT 10SM CLR 02/M01 A2992 RMK AO2 T00201012
KCCO 141215Z AUTO 26004KT 10SM CLR 02/M01 A2991 RMK AO2 T00201012
KCCO 141155Z AUTO 26005KT 10SM CLR 02/M01 A2990 RMK AO2 T00201013 10047 20020